createdAt,value
2022-07-28T00:00:02.913Z,4.97
2022-07-28T00:02:29.777Z,5.60
2022-07-28T00:04:56.617Z,4.50
2022-07-28T00:07:24.017Z,4.83
2022-07-28T00:09:50.875Z,7.50
2022-07-28T00:12:17.848Z,5.23
2022-07-28T00:14:44.595Z,5.87
2022-07-28T00:17:11.365Z,5.47
2022-07-28T00:19:38.104Z,5.10
2022-07-28T00:22:05.134Z,5.03
2022-07-28T00:24:31.900Z,5.40
2022-07-28T00:26:58.852Z,5.47
2022-07-28T00:29:25.810Z,6.70
2022-07-28T00:32:12.545Z,4.83
2022-07-28T00:34:39.690Z,7.07
2022-07-28T00:37:09.326Z,5.00
2022-07-28T00:39:41.468Z,6.50
2022-07-28T00:42:08.518Z,7.80
2022-07-28T00:44:35.261Z,5.03
2022-07-28T00:47:02.030Z,5.47
2022-07-28T00:49:28.874Z,5.80
2022-07-28T00:51:55.718Z,5.10
2022-07-28T00:54:22.448Z,5.50
2022-07-28T00:56:49.207Z,5.83
2022-07-28T00:59:16.142Z,6.10
2022-07-28T01:01:42.929Z,5.60
2022-07-28T01:04:09.833Z,5.90
2022-07-28T01:06:58.431Z,5.17
2022-07-28T01:09:42.265Z,5.97
2022-07-28T01:12:35.910Z,5.13
2022-07-28T01:15:11.621Z,7.90
2022-07-28T01:17:52.350Z,5.33
2022-07-28T01:20:28.877Z,5.67
2022-07-28T01:23:19.975Z,5.67
2022-07-28T01:26:21.768Z,5.70
2022-07-28T01:29:14.314Z,6.07
2022-07-28T01:31:48.335Z,5.77
2022-07-28T01:34:18.889Z,5.73
2022-07-28T01:36:53.295Z,7.73
2022-07-28T01:39:22.028Z,6.47
2022-07-28T01:41:52.158Z,6.50
2022-07-28T01:44:23.096Z,6.00
2022-07-28T01:46:54.459Z,6.30
2022-07-28T01:49:22.883Z,6.43
2022-07-28T01:51:51.719Z,6.50
2022-07-28T01:54:19.941Z,6.90
2022-07-28T01:56:48.684Z,8.17
2022-07-28T01:59:16.968Z,7.00
2022-07-28T02:01:44.582Z,7.97
2022-07-28T02:04:14.177Z,7.23
2022-07-28T02:06:43.681Z,7.30
2022-07-28T02:09:12.093Z,7.47
2022-07-28T02:11:40.351Z,6.77
2022-07-28T02:14:18.136Z,6.27
2022-07-28T02:16:49.766Z,7.60
2022-07-28T02:19:18.339Z,6.63
2022-07-28T02:21:47.826Z,7.30
2022-07-28T02:24:17.512Z,6.67
2022-07-28T02:26:49.580Z,8.30
2022-07-28T02:29:47.984Z,9.30
2022-07-28T02:32:23.963Z,7.40
2022-07-28T02:35:05.137Z,6.37
2022-07-28T02:37:36.738Z,6.90
2022-07-28T02:40:06.004Z,7.93
2022-07-28T02:42:35.611Z,7.83
2022-07-28T02:45:05.634Z,11.87
2022-07-28T02:47:37.750Z,8.57
2022-07-28T02:50:05.971Z,8.07
2022-07-28T02:52:34.521Z,7.80
2022-07-28T02:55:02.640Z,8.70
2022-07-28T02:57:30.565Z,8.50
2022-07-28T02:59:58.119Z,8.33
2022-07-28T03:02:25.292Z,8.57
2022-07-28T03:04:59.195Z,9.30
2022-07-28T03:07:32.881Z,9.37
2022-07-28T03:10:00.499Z,8.40
2022-07-28T03:12:27.436Z,8.53
2022-07-28T03:14:54.606Z,8.87
2022-07-28T03:17:21.668Z,9.20
2022-07-28T03:19:48.660Z,8.03
2022-07-28T03:22:16.017Z,11.13
2022-07-28T03:24:49.081Z,9.00
2022-07-28T03:27:32.157Z,9.23
2022-07-28T03:30:04.049Z,8.57
2022-07-28T03:32:34.268Z,9.63
2022-07-28T03:35:01.602Z,10.50
2022-07-28T03:37:38.823Z,9.07
2022-07-28T03:40:09.337Z,10.00
2022-07-28T03:42:37.795Z,10.57
2022-07-28T03:45:05.987Z,10.50
2022-07-28T03:47:32.827Z,10.30
2022-07-28T03:49:59.772Z,11.30
2022-07-28T03:52:26.667Z,11.70
2022-07-28T03:54:53.625Z,9.53
2022-07-28T03:57:20.402Z,11.00
2022-07-28T03:59:47.140Z,10.60
2022-07-28T04:02:13.974Z,11.00
2022-07-28T04:04:40.729Z,9.87
2022-07-28T04:07:07.477Z,11.90
2022-07-28T04:09:34.782Z,11.30
2022-07-28T04:12:01.570Z,11.30
2022-07-28T04:14:28.287Z,10.80
2022-07-28T04:16:55.057Z,10.33
2022-07-28T04:19:21.852Z,11.17
2022-07-28T04:21:48.583Z,11.43
2022-07-28T04:24:15.633Z,11.77
2022-07-28T04:26:44.014Z,11.67
2022-07-28T04:29:11.041Z,10.13
2022-07-28T04:31:37.925Z,12.20
2022-07-28T04:34:04.664Z,12.00
2022-07-28T04:36:31.534Z,11.80
2022-07-28T04:38:59.393Z,12.50
2022-07-28T04:41:27.210Z,13.33
2022-07-28T04:43:53.989Z,15.10
2022-07-28T04:46:20.831Z,12.40
2022-07-28T04:48:47.684Z,13.07
2022-07-28T04:51:14.432Z,11.97
2022-07-28T04:53:41.453Z,11.83
2022-07-28T04:56:08.203Z,14.27
2022-07-28T04:58:35.150Z,13.87
2022-07-28T05:01:02.334Z,12.70
2022-07-28T05:03:34.072Z,16.10
2022-07-28T05:06:02.941Z,12.83
2022-07-28T05:08:29.628Z,11.43
2022-07-28T05:10:56.737Z,14.03
2022-07-28T05:13:24.091Z,13.03
2022-07-28T05:15:51.322Z,13.40
2022-07-28T05:18:18.076Z,14.70
2022-07-28T05:20:44.820Z,15.50
2022-07-28T05:23:12.782Z,11.73
2022-07-28T05:25:39.584Z,11.70
2022-07-28T05:28:06.458Z,12.67
2022-07-28T05:30:33.198Z,13.97
2022-07-28T05:33:01.789Z,11.80
2022-07-28T05:35:28.818Z,12.93
2022-07-28T05:37:55.713Z,12.47
2022-07-28T05:40:22.486Z,13.13
2022-07-28T05:42:49.267Z,12.80
2022-07-28T05:45:17.689Z,12.60
2022-07-28T05:47:49.269Z,12.97
2022-07-28T05:50:17.801Z,12.87
2022-07-28T05:52:45.334Z,12.63
2022-07-28T05:55:12.783Z,13.80
2022-07-28T05:57:40.055Z,26.47
2022-07-28T06:00:09.281Z,12.63
2022-07-28T06:02:36.292Z,13.23
2022-07-28T06:05:03.209Z,12.13
2022-07-28T06:07:43.215Z,12.37
2022-07-28T06:10:13.125Z,12.20
2022-07-28T06:12:51.140Z,14.63
2022-07-28T06:15:23.395Z,12.43
2022-07-28T06:17:55.360Z,11.00
2022-07-28T06:20:23.749Z,12.67
2022-07-28T06:22:53.404Z,11.30
2022-07-28T06:25:22.387Z,11.40
2022-07-28T06:27:51.989Z,10.50
2022-07-28T06:30:19.669Z,10.80
2022-07-28T06:32:47.805Z,10.03
2022-07-28T06:35:16.677Z,9.93
2022-07-28T06:37:44.332Z,10.60
2022-07-28T06:40:11.993Z,10.60
2022-07-28T06:42:39.152Z,12.10
2022-07-28T06:45:07.003Z,11.03
2022-07-28T06:47:33.836Z,10.90
2022-07-28T06:50:00.655Z,10.27
2022-07-28T06:52:27.389Z,9.13
2022-07-28T06:54:58.277Z,9.33
2022-07-28T06:57:28.059Z,11.80
2022-07-28T07:00:03.245Z,10.77
2022-07-28T07:02:30.074Z,10.10
2022-07-28T07:04:56.848Z,9.50
2022-07-28T07:07:23.609Z,8.90
2022-07-28T07:09:51.501Z,8.37
2022-07-28T07:12:18.260Z,8.13
2022-07-28T07:14:45.045Z,9.20
2022-07-28T07:17:11.760Z,10.10
2022-07-28T07:19:38.860Z,9.10
2022-07-28T07:22:05.676Z,9.77
2022-07-28T07:24:32.597Z,8.47
2022-07-28T07:26:59.365Z,7.97
2022-07-28T07:29:26.184Z,8.80
2022-07-28T07:31:58.651Z,8.73
2022-07-28T07:34:25.565Z,8.70
2022-07-28T07:36:52.387Z,8.80
2022-07-28T07:39:19.129Z,8.90
2022-07-28T07:41:45.877Z,8.50
2022-07-28T07:44:12.896Z,10.27
2022-07-28T07:46:39.996Z,9.07
2022-07-28T07:49:06.891Z,7.50
2022-07-28T07:51:34.390Z,8.30
2022-07-28T07:54:01.113Z,8.40
2022-07-28T07:56:27.879Z,9.17
2022-07-28T07:58:57.069Z,7.97
2022-07-28T08:01:24.303Z,8.23
2022-07-28T08:03:51.459Z,8.83
2022-07-28T08:06:26.354Z,8.40
2022-07-28T08:08:54.653Z,7.27
2022-07-28T08:11:21.450Z,7.60
2022-07-28T08:13:48.239Z,7.30
2022-07-28T08:16:15.048Z,7.63
2022-07-28T08:18:41.833Z,7.43
2022-07-28T08:21:08.589Z,9.10
2022-07-28T08:23:35.323Z,8.70
2022-07-28T08:26:04.172Z,6.53
2022-07-28T08:28:30.921Z,8.70
2022-07-28T08:30:57.691Z,8.00
2022-07-28T08:33:24.494Z,8.20
2022-07-28T08:35:51.354Z,7.97
2022-07-28T08:38:18.235Z,7.50
2022-07-28T08:40:48.363Z,8.23
2022-07-28T08:43:25.760Z,8.43
2022-07-28T08:45:58.103Z,8.20
2022-07-28T08:48:31.216Z,7.30
2022-07-28T08:51:01.955Z,8.17
2022-07-28T08:53:31.063Z,8.63
2022-07-28T08:56:15.717Z,8.73
2022-07-28T08:58:43.178Z,8.07
2022-07-28T09:01:11.051Z,10.23
2022-07-28T09:03:39.344Z,8.20
2022-07-28T09:06:06.369Z,8.80
2022-07-28T09:08:33.555Z,7.97
2022-07-28T09:11:00.355Z,9.00
2022-07-28T09:13:27.252Z,9.47
2022-07-28T09:15:54.241Z,8.40
2022-07-28T09:18:21.664Z,7.30
2022-07-28T09:20:48.556Z,7.30
2022-07-28T09:23:42.515Z,7.87
2022-07-28T09:26:12.173Z,11.03
2022-07-28T09:28:59.243Z,8.20
2022-07-28T09:31:28.611Z,7.60
2022-07-28T09:34:02.319Z,8.60
2022-07-28T09:36:30.608Z,7.40
2022-07-28T09:38:57.598Z,7.80
2022-07-28T09:41:24.643Z,7.83
2022-07-28T09:43:55.289Z,7.90
2022-07-28T09:46:25.507Z,9.47
2022-07-28T09:48:54.276Z,6.50
2022-07-28T09:51:27.086Z,7.33
2022-07-28T09:54:06.578Z,7.50
2022-07-28T09:56:33.846Z,6.47
2022-07-28T09:59:02.814Z,7.30
2022-07-28T10:01:36.590Z,7.33
2022-07-28T10:04:04.438Z,7.37
2022-07-28T10:06:34.085Z,6.33
2022-07-28T10:09:03.043Z,6.40
2022-07-28T10:11:30.429Z,6.00
2022-07-28T10:14:05.558Z,6.50
2022-07-28T10:16:42.357Z,6.50
2022-07-28T10:19:09.251Z,6.70
2022-07-28T10:21:47.124Z,5.97
2022-07-28T10:24:20.883Z,6.00
2022-07-28T10:26:48.666Z,5.40
2022-07-28T10:29:21.579Z,5.53
2022-07-28T10:31:53.855Z,5.10
2022-07-28T10:34:30.154Z,4.90
2022-07-28T10:36:59.793Z,5.00
2022-07-28T10:39:32.482Z,5.00
2022-07-28T10:42:00.493Z,5.07
2022-07-28T10:44:28.247Z,5.27
2022-07-28T10:46:55.900Z,4.83
2022-07-28T10:49:27.624Z,4.67
2022-07-28T10:52:04.829Z,4.93
2022-07-28T10:55:07.742Z,5.93
2022-07-28T10:57:38.503Z,4.50
2022-07-28T11:00:24.595Z,5.90
2022-07-28T11:03:02.108Z,4.87
2022-07-28T11:05:41.409Z,5.03
2022-07-28T11:08:17.170Z,3.33
2022-07-28T11:10:51.639Z,5.07
2022-07-28T11:13:44.701Z,4.97
2022-07-28T11:16:13.286Z,7.30
2022-07-28T11:19:38.012Z,4.47
2022-07-28T11:22:18.661Z,4.10
2022-07-28T11:24:57.994Z,4.80
2022-07-28T11:27:40.196Z,3.80
2022-07-28T11:30:35.970Z,4.07
2022-07-28T11:33:04.720Z,4.80
2022-07-28T11:35:41.389Z,4.50
2022-07-28T11:38:10.314Z,4.63
2022-07-28T11:40:44.437Z,3.83
2022-07-28T11:43:36.130Z,5.90
2022-07-28T11:46:09.667Z,4.10
2022-07-28T11:48:38.762Z,3.73
2022-07-28T11:51:05.592Z,3.53
2022-07-28T11:53:50.250Z,3.00
2022-07-28T11:56:24.379Z,5.47
2022-07-28T11:59:05.766Z,3.13
2022-07-28T12:01:36.910Z,4.97
2022-07-28T12:04:17.752Z,4.00
2022-07-28T12:06:51.355Z,3.87
2022-07-28T12:09:21.858Z,3.20
2022-07-28T12:11:54.195Z,3.23
2022-07-28T12:14:22.693Z,3.47
2022-07-28T12:16:54.571Z,4.83
2022-07-28T12:19:22.270Z,3.50
2022-07-28T12:21:51.834Z,5.70
2022-07-28T12:24:45.562Z,4.17
2022-07-28T12:27:15.147Z,4.50
2022-07-28T12:29:42.399Z,3.20
2022-07-28T12:32:10.190Z,3.17
2022-07-28T12:34:39.769Z,3.53
2022-07-28T12:37:12.427Z,3.50
2022-07-28T12:39:42.321Z,4.00
2022-07-28T12:42:11.569Z,3.30
2022-07-28T12:44:40.998Z,3.57
2022-07-28T12:47:10.835Z,4.23
2022-07-28T12:49:39.392Z,5.63
2022-07-28T12:52:22.097Z,4.30
2022-07-28T12:54:54.467Z,3.50
2022-07-28T12:57:51.042Z,3.93
2022-07-28T13:00:23.861Z,3.43
2022-07-28T13:02:56.062Z,4.03
2022-07-28T13:05:55.556Z,5.00
2022-07-28T13:08:27.192Z,4.00
2022-07-28T13:10:57.531Z,4.10
2022-07-28T13:13:26.744Z,3.30
2022-07-28T13:16:14.233Z,3.70
2022-07-28T13:18:42.907Z,5.27
2022-07-28T13:21:10.978Z,3.37
2022-07-28T13:23:38.226Z,2.80
2022-07-28T13:26:07.481Z,4.50
2022-07-28T13:28:34.927Z,3.77
2022-07-28T13:31:01.835Z,4.50
2022-07-28T13:33:28.764Z,7.63
2022-07-28T13:35:55.786Z,3.33
2022-07-28T13:38:22.600Z,4.50
2022-07-28T13:40:49.398Z,2.80
2022-07-28T13:43:16.160Z,3.80
2022-07-28T13:45:43.031Z,4.20
2022-07-28T13:48:09.818Z,3.70
2022-07-28T13:50:36.873Z,10.13
2022-07-28T13:53:03.708Z,4.70
2022-07-28T13:55:30.530Z,5.13
2022-07-28T13:57:57.320Z,6.47
2022-07-28T14:00:24.288Z,3.50
2022-07-28T14:02:51.530Z,5.53
2022-07-28T14:05:18.596Z,5.63
2022-07-28T14:07:48.146Z,2.93
2022-07-28T14:10:19.385Z,3.50
2022-07-28T14:12:46.708Z,5.10
2022-07-28T14:15:14.288Z,4.90
2022-07-28T14:17:43.475Z,4.27
2022-07-28T14:20:13.387Z,3.60
2022-07-28T14:22:40.533Z,4.73
2022-07-28T14:25:07.648Z,4.10
2022-07-28T14:27:34.437Z,5.53
2022-07-28T14:30:03.615Z,3.97
2022-07-28T14:32:32.952Z,4.63
2022-07-28T14:34:59.882Z,3.47
2022-07-28T14:37:29.267Z,3.10
2022-07-28T14:39:56.236Z,3.90
2022-07-28T14:42:23.013Z,3.43
2022-07-28T14:44:49.791Z,4.37
2022-07-28T14:47:17.660Z,3.50
2022-07-28T14:49:57.290Z,3.43
2022-07-28T14:52:29.504Z,3.73
2022-07-28T14:54:57.474Z,3.90
2022-07-28T14:57:48.724Z,3.70
2022-07-28T15:00:14.608Z,3.50
2022-07-28T15:02:41.753Z,4.17
2022-07-28T15:05:10.369Z,3.23
2022-07-28T15:07:37.183Z,3.67
2022-07-28T15:10:05.027Z,3.17
2022-07-28T15:12:31.786Z,4.43
2022-07-28T15:14:58.497Z,5.20
2022-07-28T15:17:25.257Z,3.33
2022-07-28T15:19:52.024Z,3.00
2022-07-28T15:22:18.808Z,3.90
2022-07-28T15:24:46.056Z,3.10
2022-07-28T15:27:12.839Z,4.00
2022-07-28T15:29:39.603Z,4.83
2022-07-28T15:32:10.721Z,3.33
2022-07-28T15:34:39.876Z,3.27
2022-07-28T15:37:07.064Z,3.90
2022-07-28T15:39:34.185Z,4.13
2022-07-28T15:42:01.642Z,4.10
2022-07-28T15:44:29.904Z,3.50
2022-07-28T15:46:56.808Z,3.90
2022-07-28T15:49:23.794Z,3.60
2022-07-28T15:51:50.614Z,4.30
2022-07-28T15:54:18.074Z,5.17
2022-07-28T15:56:45.241Z,3.53
2022-07-28T15:59:12.042Z,4.20
2022-07-28T16:01:45.233Z,4.80
2022-07-28T16:04:12.831Z,6.43
2022-07-28T16:06:58.783Z,3.67
2022-07-28T16:09:25.523Z,4.43
2022-07-28T16:12:15.559Z,3.30
2022-07-28T16:14:42.695Z,4.50
2022-07-28T16:17:10.456Z,3.37
2022-07-28T16:19:48.922Z,6.50
2022-07-28T16:22:18.292Z,4.37
2022-07-28T16:24:45.815Z,4.20
2022-07-28T16:27:12.632Z,3.80
2022-07-28T16:29:39.356Z,3.67
2022-07-28T16:32:06.269Z,4.17
2022-07-28T16:34:32.990Z,5.90
2022-07-28T16:36:59.795Z,3.03
2022-07-28T16:39:26.518Z,4.30
2022-07-28T16:41:53.358Z,4.33
2022-07-28T16:44:20.539Z,4.30
2022-07-28T16:46:47.748Z,4.07
2022-07-28T16:49:16.181Z,3.90
2022-07-28T16:51:43.158Z,3.93
2022-07-28T16:54:09.918Z,3.73
2022-07-28T16:56:36.685Z,4.67
2022-07-28T16:59:03.457Z,4.13
2022-07-28T17:01:30.234Z,8.70
2022-07-28T17:03:57.008Z,4.43
2022-07-28T17:06:23.823Z,4.07
2022-07-28T17:08:50.561Z,4.30
2022-07-28T17:11:17.548Z,6.93
2022-07-28T17:13:45.593Z,4.00
2022-07-28T17:16:13.186Z,4.53
2022-07-28T17:18:40.529Z,4.50
2022-07-28T17:21:07.439Z,6.77
2022-07-28T17:23:36.433Z,10.30
2022-07-28T17:28:53.394Z,3.40
2022-07-28T17:31:20.210Z,3.53
2022-07-28T17:33:47.150Z,6.03
2022-07-28T17:36:13.950Z,4.10
2022-07-28T17:38:40.740Z,3.47
2022-07-28T17:41:09.175Z,4.50
2022-07-28T17:43:38.270Z,7.60
2022-07-28T17:46:10.467Z,3.53
2022-07-28T17:48:38.884Z,5.10
2022-07-28T17:51:05.935Z,5.20
2022-07-28T17:53:33.630Z,4.33
2022-07-28T17:56:06.926Z,3.80
2022-07-28T17:58:35.730Z,4.77
2022-07-28T18:01:11.275Z,5.03
2022-07-28T18:03:57.513Z,9.17
2022-07-28T18:06:32.568Z,4.20
2022-07-28T18:09:05.484Z,7.30
2022-07-28T18:11:57.023Z,3.47
2022-07-28T18:14:29.154Z,4.73
2022-07-28T18:16:56.711Z,2.93
2022-07-28T18:19:24.349Z,4.20
2022-07-28T18:21:51.148Z,6.23
2022-07-28T18:24:18.579Z,5.00
2022-07-28T18:26:45.685Z,4.63
2022-07-28T18:29:12.450Z,3.77
2022-07-28T18:31:45.522Z,4.00
2022-07-28T18:34:13.664Z,6.17
2022-07-28T18:36:40.711Z,8.97
2022-07-28T18:39:08.562Z,6.13
2022-07-28T18:41:46.264Z,5.53
2022-07-28T18:44:15.509Z,7.97
2022-07-28T18:46:42.614Z,4.70
2022-07-28T18:49:09.517Z,3.57
2022-07-28T18:51:36.814Z,4.03
2022-07-28T18:54:03.768Z,6.70
2022-07-28T18:56:31.587Z,3.97
2022-07-28T18:58:58.291Z,6.30
2022-07-28T19:01:25.129Z,5.83
2022-07-28T19:03:51.913Z,3.80
2022-07-28T19:06:18.823Z,4.40
2022-07-28T19:08:45.624Z,4.50
2022-07-28T19:11:15.109Z,5.03
2022-07-28T19:13:44.376Z,3.87
2022-07-28T19:16:11.167Z,4.10
2022-07-28T19:18:38.023Z,5.47
2022-07-28T19:21:04.925Z,4.67
2022-07-28T19:23:31.797Z,5.77
2022-07-28T19:25:58.544Z,5.30
2022-07-28T19:28:25.271Z,6.50
2022-07-28T19:30:52.970Z,4.50
2022-07-28T19:33:21.774Z,7.10
2022-07-28T19:35:51.609Z,6.70
2022-07-28T19:38:18.433Z,10.13
2022-07-28T19:40:45.362Z,5.47
2022-07-28T19:43:12.127Z,5.73
2022-07-28T19:45:38.926Z,5.37
2022-07-28T19:48:07.360Z,4.37
2022-07-28T19:50:36.103Z,4.00
2022-07-28T19:53:03.230Z,4.13
2022-07-28T19:55:35.053Z,5.50
2022-07-28T19:58:03.488Z,4.87
2022-07-28T20:00:30.317Z,4.00
2022-07-28T20:02:57.230Z,6.60
2022-07-28T20:05:24.289Z,3.97
2022-07-28T20:07:51.058Z,4.60
2022-07-28T20:10:17.855Z,4.20
2022-07-28T20:12:45.457Z,6.40
2022-07-28T20:15:12.541Z,5.60
2022-07-28T20:17:40.040Z,4.80
2022-07-28T20:20:09.477Z,5.73
2022-07-28T20:22:37.453Z,4.70
2022-07-28T20:25:05.347Z,3.83
2022-07-28T20:27:40.864Z,4.97
2022-07-28T20:30:12.410Z,5.80
2022-07-28T20:32:40.489Z,7.70
2022-07-28T20:35:09.805Z,4.33
2022-07-28T20:37:37.911Z,10.27
2022-07-28T20:40:06.671Z,4.03
2022-07-28T20:42:33.568Z,4.70
2022-07-28T20:45:00.311Z,3.87
2022-07-28T20:47:27.982Z,9.07
2022-07-28T20:49:55.422Z,4.73
2022-07-28T20:52:23.469Z,4.57
2022-07-28T20:54:54.381Z,5.00
2022-07-28T20:57:22.450Z,4.60
2022-07-28T20:59:51.267Z,4.97
2022-07-28T21:02:21.966Z,4.67
2022-07-28T21:04:50.351Z,5.73
2022-07-28T21:08:00.256Z,9.10
2022-07-28T21:10:06.737Z,5.03
2022-07-28T21:12:34.504Z,5.40
2022-07-28T21:15:01.331Z,5.17
2022-07-28T21:17:28.166Z,5.07
2022-07-28T21:19:54.909Z,4.67
2022-07-28T21:22:22.745Z,12.50
2022-07-28T21:24:54.931Z,8.47
2022-07-28T21:27:22.837Z,7.63
2022-07-28T21:32:17.388Z,7.03
2022-07-28T21:34:45.209Z,8.97
2022-07-28T21:37:13.091Z,6.57
2022-07-28T21:39:40.322Z,4.70
2022-07-28T21:42:08.840Z,7.27
2022-07-28T21:44:37.074Z,5.50
2022-07-28T21:47:04.186Z,6.70
2022-07-28T21:49:31.376Z,11.10
2022-07-28T21:51:58.527Z,7.20
2022-07-28T21:54:25.361Z,10.77
2022-07-28T21:56:52.155Z,8.60
2022-07-28T21:59:18.898Z,12.33
2022-07-28T22:01:45.818Z,11.63
2022-07-28T22:04:12.857Z,8.37
2022-07-28T22:06:39.895Z,8.00
2022-07-28T22:09:06.673Z,7.53
2022-07-28T22:11:33.580Z,7.43
2022-07-28T22:14:01.087Z,7.37
2022-07-28T22:16:27.899Z,5.23
2022-07-28T22:18:54.724Z,6.33
2022-07-28T22:21:21.494Z,5.60
2022-07-28T22:23:48.228Z,7.30
2022-07-28T22:26:14.990Z,6.27
2022-07-28T22:28:41.730Z,8.13
2022-07-28T22:31:10.121Z,5.57
2022-07-28T22:33:40.300Z,3.80
2022-07-28T22:36:08.882Z,3.90
2022-07-28T22:38:36.048Z,5.60
2022-07-28T22:41:02.898Z,3.87
2022-07-28T22:43:32.935Z,4.60
2022-07-28T22:45:59.773Z,3.70
2022-07-28T22:48:26.556Z,4.43
2022-07-28T22:50:53.364Z,3.50
2022-07-28T22:53:20.103Z,5.37
2022-07-28T22:55:47.334Z,3.90
2022-07-28T22:58:14.084Z,5.17
2022-07-28T23:00:40.869Z,5.43
2022-07-28T23:03:07.742Z,7.20
2022-07-28T23:05:39.033Z,4.73
2022-07-28T23:08:06.307Z,3.33
2022-07-28T23:10:33.291Z,4.07
2022-07-28T23:13:00.282Z,3.50
2022-07-28T23:15:41.254Z,4.50
2022-07-28T23:18:16.080Z,4.80
2022-07-28T23:20:43.870Z,2.80
2022-07-28T23:23:11.485Z,3.43
2022-07-28T23:25:42.551Z,3.60
2022-07-28T23:28:10.319Z,4.80
2022-07-28T23:30:37.616Z,4.30
2022-07-28T23:33:05.364Z,11.90
2022-07-28T23:35:32.194Z,4.87
2022-07-28T23:37:58.929Z,3.67
2022-07-28T23:40:25.771Z,23.77
2022-07-28T23:42:52.508Z,13.50
2022-07-28T23:45:19.258Z,7.83
2022-07-28T23:47:46.005Z,3.30
2022-07-28T23:50:12.753Z,4.53
2022-07-28T23:52:39.491Z,4.17
2022-07-28T23:55:06.741Z,3.63
2022-07-28T23:57:33.480Z,5.13
